Time,TemperatureF,DewpointF,PressureIn,WindDirection,WindDirectionDegrees,WindSpeedMPH,WindSpeedGustMPH,Humidity,HourlyPrecipIn,Conditions,Clouds,dailyrainin,SoftwareType,DateUTC
2013-07-20 00:12:00,70.0,66.0,29.74,West,259,8.0,-999.0,88,-99.99,,,-99.99,,2013-07-20 04:12:00,
2013-07-20 00:22:00,70.0,67.0,29.78,SW,217,5.0,-999.0,89,-99.99,,,-99.99,,2013-07-20 04:22:00,
2013-07-20 00:33:00,69.0,66.0,29.78,South,182,4.0,-999.0,91,-99.99,,,-99.99,,2013-07-20 04:33:00,
2013-07-20 00:52:00,69.0,67.0,29.75,SSW,196,3.0,-999.0,92,-99.99,,,-99.99,,2013-07-20 04:52:00,
2013-07-20 01:02:00,68.0,66.0,29.72,South,169,3.0,-999.0,92,-99.99,,,-99.99,,2013-07-20 05:02:00,
2013-07-20 01:12:00,68.0,66.0,29.72,South,169,3.0,-999.0,92,-99.99,,,-99.99,,2013-07-20 05:12:00,
2013-07-20 01:22:00,68.0,66.0,29.71,South,178,2.0,-999.0,92,-99.99,,,-99.99,,2013-07-20 05:22:00,
2013-07-20 01:52:00,68.0,66.0,29.69,South,171,3.0,-999.0,93,-99.99,,,-99.99,,2013-07-20 05:52:00,
2013-07-20 02:01:00,68.0,66.0,29.70,South,180,1.0,-999.0,93,-99.99,,,-99.99,,2013-07-20 06:01:00,
2013-07-20 02:22:00,68.0,66.0,29.69,SSW,198,2.0,-999.0,93,-99.99,,,-99.99,,2013-07-20 06:22:00,
2013-07-20 02:32:00,68.0,66.0,29.72,West,274,3.0,-999.0,93,-99.99,,,-99.99,,2013-07-20 06:32:00,
2013-07-20 02:43:00,69.0,67.0,29.72,NNW,327,2.0,-999.0,93,-99.99,,,-99.99,,2013-07-20 06:43:00,
2013-07-20 02:52:00,69.0,67.0,29.72,NNW,327,2.0,-999.0,93,-99.99,,,-99.99,,2013-07-20 06:52:00,
2013-07-20 03:01:00,68.0,66.0,29.71,NNW,327,0.0,-999.0,93,-99.99,,,-99.99,,2013-07-20 07:01:00,
2013-07-20 03:22:00,68.0,66.0,29.71,NNW,327,0.0,-999.0,94,-99.99,,,-99.99,,2013-07-20 07:22:00,
2013-07-20 03:33:00,68.0,66.0,29.71,NNW,327,0.0,-999.0,94,-99.99,,,-99.99,,2013-07-20 07:33:00,
2013-07-20 03:44:00,68.0,66.0,29.71,NNW,327,0.0,-999.0,94,-99.99,,,-99.99,,2013-07-20 07:44:00,
2013-07-20 03:54:00,68.0,66.0,29.71,NNW,327,0.0,-999.0,94,-99.99,,,-99.99,,2013-07-20 07:54:00,
2013-07-20 04:02:00,68.0,66.0,29.71,NNW,327,0.0,-999.0,94,-99.99,,,-99.99,,2013-07-20 08:02:00,
2013-07-20 04:22:00,68.0,66.0,29.71,NNW,327,0.0,-999.0,94,-99.99,,,-99.99,,2013-07-20 08:22:00,
2013-07-20 04:44:00,69.0,68.0,29.68,South,187,2.0,-999.0,95,-99.99,,,-99.99,,2013-07-20 08:44:00,
2013-07-20 04:52:00,69.0,68.0,29.68,South,187,2.0,-999.0,95,-99.99,,,-99.99,,2013-07-20 08:52:00,
2013-07-20 05:02:00,68.0,67.0,29.68,South,181,4.0,-999.0,95,-99.99,,,-99.99,,2013-07-20 09:02:00,
2013-07-20 05:22:00,68.0,67.0,29.68,South,182,3.0,-999.0,95,-99.99,,,-99.99,,2013-07-20 09:22:00,
2013-07-20 05:33:00,69.0,68.0,29.68,SW,219,3.0,-999.0,95,-99.99,,,-99.99,,2013-07-20 09:33:00,
2013-07-20 05:43:00,69.0,68.0,29.68,SSE,167,6.0,-999.0,95,-99.99,,,-99.99,,2013-07-20 09:43:00,
2013-07-20 05:53:00,69.0,68.0,29.68,SSE,167,6.0,-999.0,95,-99.99,,,-99.99,,2013-07-20 09:53:00,
2013-07-20 06:01:00,69.0,67.0,29.67,South,183,2.0,-999.0,94,-99.99,,,-99.99,,2013-07-20 10:01:00,
2013-07-20 06:22:00,69.0,67.0,29.67,SSW,200,1.0,-999.0,94,-99.99,,,-99.99,,2013-07-20 10:22:00,
2013-07-20 06:32:00,69.0,67.0,29.67,SW,229,1.0,-999.0,94,-99.99,,,-99.99,,2013-07-20 10:32:00,
2013-07-20 06:42:00,69.0,67.0,29.67,SW,229,0.0,-999.0,94,-99.99,,,-99.99,,2013-07-20 10:42:00,
2013-07-20 06:52:00,69.0,67.0,29.67,SW,229,0.0,-999.0,94,-99.99,,,-99.99,,2013-07-20 10:52:00,
2013-07-20 07:02:00,69.0,67.0,29.66,SW,229,0.0,-999.0,94,-99.99,,,-99.99,,2013-07-20 11:02:00,
2013-07-20 07:22:00,69.0,67.0,29.65,SW,229,1.0,-999.0,94,-99.99,,,-99.99,,2013-07-20 11:22:00,
2013-07-20 07:52:00,69.0,67.0,29.67,SW,229,0.0,-999.0,94,-99.99,,,-99.99,,2013-07-20 11:52:00,
2013-07-20 08:01:00,69.0,67.0,29.68,SW,232,1.0,-999.0,94,-99.99,,,-99.99,,2013-07-20 12:01:00,
2013-07-20 08:11:00,69.0,67.0,29.68,SW,232,1.0,-999.0,94,-99.99,,,-99.99,,2013-07-20 12:11:00,
2013-07-20 08:22:00,69.0,67.0,29.69,WSW,237,1.0,-999.0,94,-99.99,,,-99.99,,2013-07-20 12:22:00,
2013-07-20 08:32:00,69.0,67.0,29.69,WSW,237,1.0,-999.0,94,-99.99,,,-99.99,,2013-07-20 12:32:00,
2013-07-20 08:52:00,70.0,68.0,29.72,WSW,242,3.0,-999.0,92,-99.99,,,-99.99,,2013-07-20 12:52:00,
2013-07-20 09:02:00,70.0,67.0,29.71,WSW,239,2.0,-999.0,91,-99.99,,,-99.99,,2013-07-20 13:02:00,
2013-07-20 09:11:00,70.0,67.0,29.71,WSW,239,2.0,-999.0,91,-99.99,,,-99.99,,2013-07-20 13:11:00,
2013-07-20 09:22:00,71.0,68.0,29.71,WSW,248,3.0,-999.0,90,-99.99,,,-99.99,,2013-07-20 13:22:00,
2013-07-20 09:32:00,71.0,68.0,29.71,WSW,243,3.0,-999.0,89,-99.99,,,-99.99,,2013-07-20 13:32:00,
2013-07-20 09:43:00,71.0,68.0,29.71,WSW,243,3.0,-999.0,89,-99.99,,,-99.99,,2013-07-20 13:43:00,
2013-07-20 09:53:00,72.0,69.0,29.71,WSW,244,2.0,-999.0,89,-99.99,,,-99.99,,2013-07-20 13:53:00,
2013-07-20 10:02:00,72.0,68.0,29.72,West,260,2.0,-999.0,88,-99.99,,,-99.99,,2013-07-20 14:02:00,
2013-07-20 10:11:00,72.0,68.0,29.72,West,260,2.0,-999.0,88,-99.99,,,-99.99,,2013-07-20 14:11:00,
2013-07-20 10:22:00,73.0,69.0,29.72,WSW,254,4.0,-999.0,86,-99.99,,,-99.99,,2013-07-20 14:22:00,
2013-07-20 10:32:00,73.0,69.0,29.72,SW,235,5.0,-999.0,86,-99.99,,,-99.99,,2013-07-20 14:32:00,
2013-07-20 10:43:00,74.0,69.0,29.72,West,259,4.0,-999.0,85,-99.99,,,-99.99,,2013-07-20 14:43:00,
2013-07-20 10:53:00,74.0,69.0,29.72,West,259,4.0,-999.0,85,-99.99,,,-99.99,,2013-07-20 14:53:00,
2013-07-20 11:01:00,74.0,69.0,29.72,WSW,238,4.0,-999.0,84,-99.99,,,-99.99,,2013-07-20 15:01:00,
2013-07-20 11:11:00,74.0,68.0,29.72,West,271,4.0,-999.0,83,-99.99,,,-99.99,,2013-07-20 15:11:00,
2013-07-20 11:23:00,74.0,68.0,29.72,West,271,4.0,-999.0,83,-99.99,,,-99.99,,2013-07-20 15:23:00,
2013-07-20 11:33:00,74.0,69.0,29.72,West,259,3.0,-999.0,85,-99.99,,,-99.99,,2013-07-20 15:33:00,
2013-07-20 11:53:00,73.0,68.0,29.73,WNW,285,5.0,-999.0,85,-99.99,,,-99.99,,2013-07-20 15:53:00,
2013-07-20 12:01:00,72.0,69.0,29.73,NW,325,4.0,-999.0,89,-99.99,,,-99.99,,2013-07-20 16:01:00,
2013-07-20 12:11:00,70.0,66.0,29.74,West,277,5.0,-999.0,88,-99.99,,,-99.99,,2013-07-20 16:11:00,
2013-07-20 12:22:00,70.0,66.0,29.74,West,277,5.0,-999.0,88,-99.99,,,-99.99,,2013-07-20 16:22:00,
2013-07-20 12:32:00,71.0,67.0,29.74,NW,317,2.0,-999.0,88,-99.99,,,-99.99,,2013-07-20 16:32:00,
2013-07-20 12:43:00,73.0,63.0,29.73,WSW,256,5.0,-999.0,72,-99.99,,,-99.99,,2013-07-20 16:43:00,
2013-07-20 12:52:00,73.0,63.0,29.73,WSW,256,5.0,-999.0,72,-99.99,,,-99.99,,2013-07-20 16:52:00,
2013-07-20 13:02:00,74.0,62.0,29.73,West,263,4.0,-999.0,67,-99.99,,,-99.99,,2013-07-20 17:02:00,
2013-07-20 13:11:00,74.0,63.0,29.73,WNW,285,2.0,-999.0,68,-99.99,,,-99.99,,2013-07-20 17:11:00,
2013-07-20 13:22:00,74.0,63.0,29.73,WNW,285,2.0,-999.0,68,-99.99,,,-99.99,,2013-07-20 17:22:00,
2013-07-20 13:32:00,74.0,64.0,29.75,WNW,285,0.0,-999.0,70,-99.99,,,-99.99,,2013-07-20 17:32:00,
2013-07-20 13:43:00,72.0,65.0,29.75,SSW,213,2.0,-999.0,79,-99.99,,,-99.99,,2013-07-20 17:43:00,
2013-07-20 13:53:00,72.0,65.0,29.75,SSW,213,2.0,-999.0,79,-99.99,,,-99.99,,2013-07-20 17:53:00,
2013-07-20 14:01:00,70.0,65.0,29.75,WSW,243,3.0,-999.0,83,-99.99,,,-99.99,,2013-07-20 18:01:00,
2013-07-20 14:12:00,71.0,65.0,29.75,SW,234,3.0,-999.0,81,-99.99,,,-99.99,,2013-07-20 18:12:00,
2013-07-20 14:25:00,71.0,65.0,29.75,SW,234,3.0,-999.0,81,-99.99,,,-99.99,,2013-07-20 18:25:00,
2013-07-20 14:36:00,71.0,65.0,29.75,SW,223,2.0,-999.0,82,-99.99,,,-99.99,,2013-07-20 18:36:00,
2013-07-20 14:47:00,72.0,66.0,29.75,South,189,3.0,-999.0,81,-99.99,,,-99.99,,2013-07-20 18:47:00,
2013-07-20 14:56:00,72.0,66.0,29.75,South,189,3.0,-999.0,81,-99.99,,,-99.99,,2013-07-20 18:56:00,
2013-07-20 15:06:00,73.0,66.0,29.75,SSW,194,3.0,-999.0,80,-99.99,,,-99.99,,2013-07-20 19:06:00,
2013-07-20 15:16:00,74.0,65.0,29.75,WSW,254,4.0,-999.0,74,-99.99,,,-99.99,,2013-07-20 19:16:00,
2013-07-20 15:26:00,74.0,65.0,29.75,WSW,254,4.0,-999.0,74,-99.99,,,-99.99,,2013-07-20 19:26:00,
2013-07-20 15:35:00,76.0,68.0,29.75,SW,235,1.0,-999.0,76,-99.99,,,-99.99,,2013-07-20 19:35:00,
2013-07-20 15:44:00,77.0,67.0,29.75,SW,230,2.0,-999.0,71,-99.99,,,-99.99,,2013-07-20 19:44:00,
2013-07-20 15:55:00,77.0,67.0,29.75,SW,230,2.0,-999.0,71,-99.99,,,-99.99,,2013-07-20 19:55:00,
2013-07-20 16:06:00,78.0,65.0,29.76,WSW,247,1.0,-999.0,65,-99.99,,,-99.99,,2013-07-20 20:06:00,
2013-07-20 16:16:00,78.0,66.0,29.76,WSW,242,2.0,-999.0,67,-99.99,,,-99.99,,2013-07-20 20:16:00,
2013-07-20 16:24:00,78.0,66.0,29.76,WSW,242,2.0,-999.0,67,-99.99,,,-99.99,,2013-07-20 20:24:00,
2013-07-20 16:35:00,78.0,66.0,29.76,WSW,240,1.0,-999.0,66,-99.99,,,-99.99,,2013-07-20 20:35:00,
2013-07-20 16:56:00,79.0,66.0,29.76,WSW,240,2.0,-999.0,64,-99.99,,,-99.99,,2013-07-20 20:56:00,
2013-07-20 17:07:00,78.0,66.0,29.76,SW,235,1.0,-999.0,67,-99.99,,,-99.99,,2013-07-20 21:07:00,
2013-07-20 17:15:00,78.0,66.0,29.76,SW,235,1.0,-999.0,67,-99.99,,,-99.99,,2013-07-20 21:15:00,
2013-07-20 17:28:00,78.0,66.0,29.76,SW,235,1.0,-999.0,67,-99.99,,,-99.99,,2013-07-20 21:28:00,
2013-07-20 17:35:00,79.0,66.0,29.76,SW,235,0.0,-999.0,65,-99.99,,,-99.99,,2013-07-20 21:35:00,
2013-07-20 17:46:00,79.0,61.0,29.76,SW,235,1.0,-999.0,55,-99.99,,,-99.99,,2013-07-20 21:46:00,
2013-07-20 17:55:00,79.0,61.0,29.76,SW,235,1.0,-999.0,55,-99.99,,,-99.99,,2013-07-20 21:55:00,
2013-07-20 18:36:00,78.0,60.0,29.76,WNW,288,1.0,-999.0,54,-99.99,,,-99.99,,2013-07-20 22:36:00,
2013-07-20 18:47:00,79.0,59.0,29.76,WNW,288,0.0,-999.0,51,-99.99,,,-99.99,,2013-07-20 22:47:00,
2013-07-20 18:55:00,79.0,59.0,29.76,WNW,288,0.0,-999.0,51,-99.99,,,-99.99,,2013-07-20 22:55:00,
2013-07-20 19:06:00,80.0,60.0,29.76,WNW,288,0.0,-999.0,51,-99.99,,,-99.99,,2013-07-20 23:06:00,
2013-07-20 19:17:00,81.0,63.0,29.76,WNW,288,0.0,-999.0,54,-99.99,,,-99.99,,2013-07-20 23:17:00,
2013-07-20 19:29:00,81.0,63.0,29.76,WNW,288,0.0,-999.0,54,-99.99,,,-99.99,,2013-07-20 23:29:00,
2013-07-20 19:38:00,80.0,60.0,29.76,WNW,288,0.0,-999.0,51,-99.99,,,-99.99,,2013-07-20 23:38:00,
2013-07-20 19:45:00,80.0,60.0,29.76,WNW,288,0.0,-999.0,50,-99.99,,,-99.99,,2013-07-20 23:45:00,
2013-07-20 19:56:00,80.0,60.0,29.76,WNW,288,0.0,-999.0,50,-99.99,,,-99.99,,2013-07-20 23:56:00,
2013-07-20 20:09:00,80.0,60.0,29.76,WNW,288,0.0,-999.0,51,-99.99,,,-99.99,,2013-07-21 00:09:00,
2013-07-20 20:18:00,80.0,63.0,29.77,WNW,288,0.0,-999.0,56,-99.99,,,-99.99,,2013-07-21 00:18:00,
2013-07-20 20:24:00,80.0,63.0,29.77,WNW,288,0.0,-999.0,56,-99.99,,,-99.99,,2013-07-21 00:24:00,
2013-07-20 20:45:00,78.0,64.0,29.78,WNW,288,0.0,-999.0,63,-99.99,,,-99.99,,2013-07-21 00:45:00,
2013-07-20 20:55:00,78.0,64.0,29.78,WNW,288,0.0,-999.0,63,-99.99,,,-99.99,,2013-07-21 00:55:00,
2013-07-20 21:07:00,76.0,64.0,29.78,WNW,288,0.0,-999.0,67,-99.99,,,-99.99,,2013-07-21 01:07:00,
2013-07-20 21:28:00,74.0,66.0,29.79,WNW,288,0.0,-999.0,75,-99.99,,,-99.99,,2013-07-21 01:28:00,
2013-07-20 21:36:00,72.0,64.0,29.80,WNW,288,0.0,-999.0,77,-99.99,,,-99.99,,2013-07-21 01:36:00,
2013-07-20 21:48:00,-999.0,-99.9,29.80,WNW,288,0.0,-999.0,-999,-99.99,,,-99.99,,2013-07-21 01:48:00,
2013-07-20 21:57:00,71.0,64.0,29.80,WNW,288,0.0,-999.0,79,-99.99,,,-99.99,,2013-07-21 01:57:00,
2013-07-20 22:07:00,70.0,64.0,29.81,WNW,288,0.0,-999.0,80,-99.99,,,-99.99,,2013-07-21 02:07:00,
2013-07-20 22:18:00,70.0,64.0,29.81,WNW,288,0.0,-999.0,82,-99.99,,,-99.99,,2013-07-21 02:18:00,
2013-07-20 22:28:00,70.0,64.0,29.81,WNW,288,0.0,-999.0,82,-99.99,,,-99.99,,2013-07-21 02:28:00,
2013-07-20 22:37:00,69.0,64.0,29.82,WNW,288,0.0,-999.0,84,-99.99,,,-99.99,,2013-07-21 02:37:00,
2013-07-20 22:44:00,69.0,64.0,29.82,WNW,288,0.0,-999.0,85,-99.99,,,-99.99,,2013-07-21 02:44:00,
2013-07-20 23:05:00,69.0,65.0,29.82,WNW,288,0.0,-999.0,86,-99.99,,,-99.99,,2013-07-21 03:05:00,
2013-07-20 23:26:00,68.0,64.0,29.83,WNW,288,0.0,-999.0,87,-99.99,,,-99.99,,2013-07-21 03:26:00,
2013-07-20 23:45:00,70.0,65.0,29.83,WNW,288,0.0,-999.0,83,-99.99,,,-99.99,,2013-07-21 03:45:00,
2013-07-20 23:57:00,70.0,65.0,29.83,WNW,288,0.0,-999.0,83,-99.99,,,-99.99,,2013-07-21 03:57:00,